メインページ
METAR-TAF:

METAR-TAF

空港 :

岐阜基地

岐阜, 日本

緯度: 35-23N, 経度: 136-52E, 海抜: 39m

現時点の気象観測

当レポートは49分前の22:42(UTC)に作成
西/北西の風 2kt
気温 21°C
湿度 94%
気圧 1009 hPa
視程: 8000m
高度200ftの雲はほとんどない
高度500ftの雲は散在している
高度800ftの千切れ雲あり
弱いにわか雨

METAR: RJNG 212242Z 29002KT 8000 -SHRA FEW002 SCT005 BKN008 21/20 Q1009 RMK 1ST002 3ST005 6CU008 A2981 VIS SW 5KM BR

時間: 08:31 (23:31 UTC)


TAF: 見つかりません

4,000以上の空港の気象観測と天気予報(METAR報とTAF報)

利用可能な観測所は地図上に黄色い丸と赤い丸で示す。

丸の上にカーソルを重ねると観測所名を参照できる。

次にクリックすると気象観測と天気予報を参照できる。

マップの切り替え:黒色「×」印の緑ボタンをクリックして拡大、「-」印の緑ボタンをクリックして縮小、緑色の三角印をクリックして隣りの地図に切り替え


METAR-TAF: